Impacts TAF Board INFO
FOR SITUATIONAL AWARENESS. NOT TO BE USED FOR FLIGHT PLANNING PURPOSES.
IDs:

KLAS - Las Vegas/McCarran I, NV, US

Issued at 2045 UTC 24 Apr 2018
Updated at 2056 UTC 24 Apr 2018
Potential Impact None Slight Moderate High
Time1956Z 24/21Z 24/22Z 24/23Z 25/00Z 25/01Z 25/02Z 25/03Z 25/04Z 25/05Z 25/06Z 25/07Z 25/08Z 25/09Z>>
Type OBS PRVL PRVL PRVL PRVL PRVL PRVL PRVL PRVL PRVL PRVL PRVL PRVL PRVL
VIS 10 >6 >6 >6 >6 >6 >6 >6 >6 >6 >6 >6 >6 >6
CIG -- -- -- -- -- -- -- -- -- -- -- 250 250 250
Cover SCT SCT SCT SCT SCT SCT SCT SCT SCT SCT SCT BKN BKN BKN
FltCat VFR VFR VFR VFR VFR VFR VFR VFR VFR VFR VFR VFR VFR VFR
WX -- -- -- -- -- -- -- -- -- -- -- -- -- --
WDir 20 10 10 10 10 10 10 10 10 10 10 20 20 180
WSpd 5 5 5 5 5 5 5 5 5 5 5 9 9 7
WGst -- -- -- -- -- -- -- -- -- -- -- -- -- --

Raw TAF
KLAS 242045Z 2421/2524 01005KT P6SM SCT250
  FM250700 02009KT P6SM BKN250
  FM250900 18007KT P6SM BKN250
  FM251500 VRB05KT P6SM BKN250


Raw METAR
KLAS 241956Z 02005KT 10SM SCT250 30/M04 A2998 RMK AO2 SLP127 T03001039
KLAS 241856Z 00000KT 10SM SCT250 28/M04 A3003 RMK AO2 SLP144 T02831039
KLAS 241756Z 05009KT 10SM SCT250 28/M04 A3004 RMK AO2 SLP148 T02781039 10283 20194 50003

METAR Board
Radar Display
Forecast Discussion

FOR SITUATIONAL AWARENESS. NOT TO BE USED FOR FLIGHT PLANNING PURPOSES.